Airfield :
LOGIN :

Register | Disclaimer

   EN    FR    IT 

 










Legend :    VFR   Marginal VFR   IFR   Intensive IFR   Very Intensive IFR
Visi :
Ceiling :
>= 8 km
>= 3000ft
5 to 8 km
1000 to 3000 ft
1500m to 5 km
500 to 1000 ft
800 to 1500m
200 to 500 ft
< 800m
< 200 ft
Symbols :   Thunderstorms  Fog  Heavy snow  Heavy precipitations  Wind > 20 kt
SIGMETs :     Misc.  Thunderstorms  Icing  Turbulence  Mountain Waves  Volcanic Ashes







- Airport Elevation : 776 ft
- IATA code : RMS


ETAR - Ramstein Air Base

CURRENT METAR :
  • 150026Z 22008KT 9000 -RA BKN016 04/03 A2929 RMK AO2A SLP928 $

EXPIRED METARs :
  • 150016Z 23007G15KT 9000 -RA BKN014 04/03 A2928 RMK AO2A BKN V SCT SLP925 $
  • 150004Z 24010G18KT 9000 -RA FEW008 FEW013 04/03 A2928 RMK AO2A SLP925 $
  • 142356Z 23009KT 9000 -RA SCT011 04/04 A2928 RMK AO2A SLP925 P0004 60012 T00380037 10045 20018 56014 $
  • 142351Z 24007KT 9000 -RA SCT012 04/04 A2928 RMK AO2A SLP925 $
  • 142324Z 25010G17KT 9000 -RA BKN013 OVC022 04/04 A2928 RMK AO2A SLP925 $
  • 142313Z 23005KT 9000 -RA BKN015 OVC024 04/04 A2928 RMK AO2A SLP925 $
  • 142256Z 20007G17KT 9000 -RA BKN022 OVC037 04/04 A2928 RMK AO2A RAB32 SLP925 P0001 T00420035 400600018 $
  • 142248Z 21009G15KT 9999 -RA BKN022 OVC037 04/03 A2929 RMK RAB32 CIG 022V030 BKN V SCT SLP928 $
  • 142232Z 22012G15KT 9999 -RA FEW019 SCT027 OVC035 04/03 A2929 RMK AO2A RAB32 SLP928 $
  • 142218Z 21010G21KT 9999 BKN027 OVC033 04/03 A2930 RMK AO2A SLP932 $
  • 142210Z 22009G18KT 9999 FEW021 BKN027 OVC032 04/03 A2929 RMK AO2A BKN V OVC SLP928 $
  • 142157Z 22013G17KT 9999 SCT020 BKN026 04/03 A2928 RMK AO2A CIG 019V026 SLP925 $

TAF AMD TAF ETAR
Valid from the 14 at 23:00 until the 16 at 00:00 UTC


142335Z 1423/1524 25009KT 8000 -SHRA BKN010 OVC020 620205 QNH2928INS
TEMPO 1423/1501 22012G20KT
BECMG 1500/1501 21012G20KT 9999 NSW BKN010 610109 QNH2931INS
TEMPO 1505/1508 3200 -SN BKN007
BECMG 1507/1508 21012KT 8000 -SHRA SCT020 BKN025 610309 QNH2934INS
BECMG 1514/1515 23009KT 9999 NSW SCT025 BKN030 610309 QNH2950INS TX04/1512Z TN01/1506Z
No reported NOTAMs for that airfield.



MET'MAP, your aeronautical weather chart ! - Copyright ORBIFLY December 2007 - Disclaimer

ORBIFLY MET'MAP TEAM :

Programming & Development : Alexandra Zaïnal
Concept & Development : Baudouin d'Aumeries
Co-Development & Prog : Marc-Olivier Méhu
Technical & hardware support : Manuel Goepfert

Contact : metmap@orbifly.com




SOURCES & CREDITS :

   NOAA